sensor_id;sensor_type;location;lat;lon;timestamp;pressure;altitude;pressure_sealevel;temperature;humidity
43125;BME280;49182;50.788;7.318;2023-02-10T00:01:26;102842.34;;;0.53;79.52
43125;BME280;49182;50.788;7.318;2023-02-10T00:03:53;102852.75;;;0.54;79.90
43125;BME280;49182;50.788;7.318;2023-02-10T00:06:22;102852.75;;;0.53;80.47
43125;BME280;49182;50.788;7.318;2023-02-10T00:08:52;102850.97;;;0.56;80.98
43125;BME280;49182;50.788;7.318;2023-02-10T00:11:19;102841.53;;;0.48;81.04
43125;BME280;49182;50.788;7.318;2023-02-10T00:13:46;102856.22;;;0.53;81.67
43125;BME280;49182;50.788;7.318;2023-02-10T00:16:14;102854.53;;;0.48;81.58
43125;BME280;49182;50.788;7.318;2023-02-10T00:18:41;102861.41;;;0.52;81.73
43125;BME280;49182;50.788;7.318;2023-02-10T00:21:09;102867.47;;;0.51;81.48
43125;BME280;49182;50.788;7.318;2023-02-10T00:23:36;102853.63;;;0.53;81.53
43125;BME280;49182;50.788;7.318;2023-02-10T00:26:05;102850.22;;;0.45;81.50
43125;BME280;49182;50.788;7.318;2023-02-10T00:28:33;102870.91;;;0.56;81.51
43125;BME280;49182;50.788;7.318;2023-02-10T00:31:05;102863.94;;;0.59;81.59
43125;BME280;49182;50.788;7.318;2023-02-10T00:33:31;102836.47;;;0.37;82.12
43125;BME280;49182;50.788;7.318;2023-02-10T00:35:58;102870.00;;;0.60;81.56
43125;BME280;49182;50.788;7.318;2023-02-10T00:38:25;102859.56;;;0.63;82.06
43125;BME280;49182;50.788;7.318;2023-02-10T00:40:51;102868.22;;;0.63;82.56
43125;BME280;49182;50.788;7.318;2023-02-10T00:43:19;102872.56;;;0.64;82.66
43125;BME280;49182;50.788;7.318;2023-02-10T00:45:46;102851.88;;;0.51;82.91
43125;BME280;49182;50.788;7.318;2023-02-10T00:48:13;102879.47;;;0.67;82.99
43125;BME280;49182;50.788;7.318;2023-02-10T00:50:39;102884.63;;;0.70;82.62
43125;BME280;49182;50.788;7.318;2023-02-10T00:53:06;102879.41;;;0.70;82.89
43125;BME280;49182;50.788;7.318;2023-02-10T00:55:33;102882.88;;;0.72;82.85
43125;BME280;49182;50.788;7.318;2023-02-10T00:57:59;102885.44;;;0.75;83.34
43125;BME280;49182;50.788;7.318;2023-02-10T01:00:27;102886.28;;;0.77;83.25
43125;BME280;49182;50.788;7.318;2023-02-10T01:02:54;102881.06;;;0.80;83.82
43125;BME280;49182;50.788;7.318;2023-02-10T01:05:21;102865.59;;;0.68;83.76
43125;BME280;49182;50.788;7.318;2023-02-10T01:07:48;102838.88;;;0.54;83.70
43125;BME280;49182;50.788;7.318;2023-02-10T01:10:15;102774.38;;;0.11;84.43
43125;BME280;49182;50.788;7.318;2023-02-10T01:12:44;102889.81;;;0.73;84.32
43125;BME280;49182;50.788;7.318;2023-02-10T01:15:11;102888.03;;;0.75;84.41
43125;BME280;49182;50.788;7.318;2023-02-10T01:17:40;102843.22;;;0.52;84.13
43125;BME280;49182;50.788;7.318;2023-02-10T01:20:07;102887.16;;;0.76;84.60
43125;BME280;49182;50.788;7.318;2023-02-10T01:22:35;102881.06;;;0.80;84.40
43125;BME280;49182;50.788;7.318;2023-02-10T01:25:04;102887.97;;;0.82;83.84
43125;BME280;49182;50.788;7.318;2023-02-10T01:27:31;102876.81;;;0.71;84.19
43125;BME280;49182;50.788;7.318;2023-02-10T01:29:57;102880.28;;;0.69;84.16
43125;BME280;49182;50.788;7.318;2023-02-10T01:32:24;102900.09;;;0.84;84.34
43125;BME280;49182;50.788;7.318;2023-02-10T01:34:52;102855.28;;;0.59;84.01
43125;BME280;49182;50.788;7.318;2023-02-10T01:37:18;102906.03;;;0.95;84.09
43125;BME280;49182;50.788;7.318;2023-02-10T01:39:45;102859.50;;;0.69;83.80
43125;BME280;49182;50.788;7.318;2023-02-10T01:42:12;102881.03;;;0.83;83.90
43125;BME280;49182;50.788;7.318;2023-02-10T01:45:11;102903.38;;;0.99;84.10
43125;BME280;49182;50.788;7.318;2023-02-10T01:47:39;102901.69;;;0.95;84.82
43125;BME280;49182;50.788;7.318;2023-02-10T01:50:08;102906.03;;;0.93;84.84
43125;BME280;49182;50.788;7.318;2023-02-10T01:52:35;102901.75;;;0.89;84.81
43125;BME280;49182;50.788;7.318;2023-02-10T01:55:04;102899.16;;;0.89;84.62
43125;BME280;49182;50.788;7.318;2023-02-10T01:57:32;102882.84;;;0.75;85.06
43125;BME280;49182;50.788;7.318;2023-02-10T02:00:00;102900.91;;;0.89;85.22
43125;BME280;49182;50.788;7.318;2023-02-10T02:02:37;102882.81;;;0.78;85.02
43125;BME280;49182;50.788;7.318;2023-02-10T02:05:16;102894.81;;;0.91;84.48
43125;BME280;49182;50.788;7.318;2023-02-10T02:07:44;102899.13;;;0.92;84.97
43125;BME280;49182;50.788;7.318;2023-02-10T02:10:11;102896.50;;;0.95;84.63
43125;BME280;49182;50.788;7.318;2023-02-10T02:12:41;102897.28;;;1.00;84.66
43125;BME280;49182;50.788;7.318;2023-02-10T02:15:14;102900.75;;;1.02;84.27
43125;BME280;49182;50.788;7.318;2023-02-10T02:17:48;102907.69;;;1.02;84.49
43125;BME280;49182;50.788;7.318;2023-02-10T02:20:35;102905.97;;;1.01;84.24
43125;BME280;49182;50.788;7.318;2023-02-10T02:23:14;102904.22;;;1.00;84.73
43125;BME280;49182;50.788;7.318;2023-02-10T02:25:57;102902.50;;;1.00;84.85
43125;BME280;49182;50.788;7.318;2023-02-10T02:28:44;102905.97;;;1.01;84.91
43125;BME280;49182;50.788;7.318;2023-02-10T02:31:49;102909.41;;;1.03;84.81
43125;BME280;49182;50.788;7.318;2023-02-10T02:34:24;102905.16;;;0.94;85.54
43125;BME280;49182;50.788;7.318;2023-02-10T02:36:54;102906.88;;;0.97;85.62
43125;BME280;49182;50.788;7.318;2023-02-10T02:39:22;102902.53;;;0.99;85.44
43125;BME280;49182;50.788;7.318;2023-02-10T02:44:31;102909.44;;;1.01;85.57
43125;BME280;49182;50.788;7.318;2023-02-10T02:47:06;102906.88;;;0.97;85.65
43125;BME280;49182;50.788;7.318;2023-02-10T02:49:41;102881.94;;;0.79;85.42
43125;BME280;49182;50.788;7.318;2023-02-10T02:52:14;102910.38;;;0.93;85.84
43125;BME280;49182;50.788;7.318;2023-02-10T02:54:45;102919.94;;;0.92;86.21
43125;BME280;49182;50.788;7.318;2023-02-10T02:57:20;102916.53;;;0.86;86.29
43125;BME280;49182;50.788;7.318;2023-02-10T02:59:51;102915.69;;;0.84;86.18
43125;BME280;49182;50.788;7.318;2023-02-10T03:02:21;102921.75;;;0.84;86.47
43125;BME280;49182;50.788;7.318;2023-02-10T03:04:49;102921.69;;;0.87;86.16
43125;BME280;49182;50.788;7.318;2023-02-10T03:07:15;102928.69;;;0.85;86.60
43125;BME280;49182;50.788;7.318;2023-02-10T03:09:43;102888.16;;;0.64;86.30
43125;BME280;49182;50.788;7.318;2023-02-10T03:12:10;102927.75;;;0.89;86.08
43125;BME280;49182;50.788;7.318;2023-02-10T03:14:36;102920.81;;;0.91;86.31
43125;BME280;49182;50.788;7.318;2023-02-10T03:17:03;102930.34;;;0.92;85.99
43125;BME280;49182;50.788;7.318;2023-02-10T03:19:31;102929.44;;;0.95;86.31
43125;BME280;49182;50.788;7.318;2023-02-10T03:21:58;102929.44;;;0.93;86.25
43125;BME280;49182;50.788;7.318;2023-02-10T03:24:24;102932.84;;;1.01;85.66
43125;BME280;49182;50.788;7.318;2023-02-10T03:26:51;102938.09;;;0.97;86.18
43125;BME280;49182;50.788;7.318;2023-02-10T03:29:18;102932.91;;;0.95;86.01
43125;BME280;49182;50.788;7.318;2023-02-10T03:31:44;102881.19;;;0.68;86.45
43125;BME280;49182;50.788;7.318;2023-02-10T03:34:11;102936.44;;;0.90;86.68
43125;BME280;49182;50.788;7.318;2023-02-10T03:36:39;102938.16;;;0.89;86.77
43125;BME280;49182;50.788;7.318;2023-02-10T03:39:06;102936.44;;;0.88;86.93
43125;BME280;49182;50.788;7.318;2023-02-10T03:41:33;102943.34;;;0.91;86.72
43125;BME280;49182;50.788;7.318;2023-02-10T03:43:59;102943.38;;;0.89;86.60
43125;BME280;49182;50.788;7.318;2023-02-10T03:46:26;102945.88;;;0.98;86.36
43125;BME280;49182;50.788;7.318;2023-02-10T03:48:52;102943.34;;;0.92;86.48
43125;BME280;49182;50.788;7.318;2023-02-10T03:51:19;102937.25;;;0.93;86.23
43125;BME280;49182;50.788;7.318;2023-02-10T03:53:47;102908.00;;;0.73;86.44
43125;BME280;49182;50.788;7.318;2023-02-10T03:56:13;102941.63;;;0.91;86.84
43125;BME280;49182;50.788;7.318;2023-02-10T03:58:40;102943.31;;;0.94;86.47
43125;BME280;49182;50.788;7.318;2023-02-10T04:01:11;102938.97;;;0.93;86.76
43125;BME280;49182;50.788;7.318;2023-02-10T04:03:38;102939.88;;;0.92;86.50
43125;BME280;49182;50.788;7.318;2023-02-10T04:06:05;102900.16;;;0.74;86.02
43125;BME280;49182;50.788;7.318;2023-02-10T04:08:32;102938.97;;;0.97;86.55
43125;BME280;49182;50.788;7.318;2023-02-10T04:11:00;102937.22;;;0.95;86.33
43125;BME280;49182;50.788;7.318;2023-02-10T04:13:27;102937.28;;;0.92;86.43
43125;BME280;49182;50.788;7.318;2023-02-10T04:16:01;102936.38;;;0.93;86.05
43125;BME280;49182;50.788;7.318;2023-02-10T04:18:27;102939.03;;;0.91;86.57
43125;BME280;49182;50.788;7.318;2023-02-10T04:20:54;102927.75;;;0.89;86.37
43125;BME280;49182;50.788;7.318;2023-02-10T04:23:21;102934.63;;;0.93;85.96
43125;BME280;49182;50.788;7.318;2023-02-10T04:25:48;102927.81;;;0.86;85.57
43125;BME280;49182;50.788;7.318;2023-02-10T04:28:16;102915.69;;;0.85;85.66
43125;BME280;49182;50.788;7.318;2023-02-10T04:30:43;102907.22;;;0.65;85.57
43125;BME280;49182;50.788;7.318;2023-02-10T04:33:10;102922.81;;;0.65;85.49
43125;BME280;49182;50.788;7.318;2023-02-10T04:35:36;102923.78;;;0.52;85.53
43125;BME280;49182;50.788;7.318;2023-02-10T04:38:03;102912.56;;;0.48;85.57
43125;BME280;49182;50.788;7.318;2023-02-10T04:40:30;102903.13;;;0.38;86.00
43125;BME280;49182;50.788;7.318;2023-02-10T04:42:57;102911.81;;;0.37;85.39
43125;BME280;49182;50.788;7.318;2023-02-10T04:45:24;102911.00;;;0.30;85.99
43125;BME280;49182;50.788;7.318;2023-02-10T04:47:51;102907.53;;;0.25;85.96
43125;BME280;49182;50.788;7.318;2023-02-10T04:50:18;102914.50;;;0.23;85.46
43125;BME280;49182;50.788;7.318;2023-02-10T04:52:44;102883.53;;;-0.01;86.26
43125;BME280;49182;50.788;7.318;2023-02-10T04:55:11;102921.44;;;0.21;86.10
43125;BME280;49182;50.788;7.318;2023-02-10T04:57:38;102927.50;;;0.20;86.89
43125;BME280;49182;50.788;7.318;2023-02-10T05:00:06;102933.50;;;0.28;87.13
43125;BME280;49182;50.788;7.318;2023-02-10T05:02:34;102918.84;;;0.21;87.20
43125;BME280;49182;50.788;7.318;2023-02-10T05:05:00;102938.72;;;0.28;87.70
43125;BME280;49182;50.788;7.318;2023-02-10T05:07:27;102936.97;;;0.27;87.21
43125;BME280;49182;50.788;7.318;2023-02-10T05:09:53;102933.50;;;0.28;87.50
43125;BME280;49182;50.788;7.318;2023-02-10T05:12:22;102932.59;;;0.31;88.12
43125;BME280;49182;50.788;7.318;2023-02-10T05:14:48;102933.50;;;0.27;88.45
43125;BME280;49182;50.788;7.318;2023-02-10T05:17:15;102942.16;;;0.29;88.75
43125;BME280;49182;50.788;7.318;2023-02-10T05:19:43;102927.44;;;0.28;89.29
43125;BME280;49182;50.788;7.318;2023-02-10T05:22:10;102936.97;;;0.30;89.99
43125;BME280;49182;50.788;7.318;2023-02-10T05:24:36;102940.41;;;0.32;89.67
43125;BME280;49182;50.788;7.318;2023-02-10T05:27:03;102942.16;;;0.30;89.67
43125;BME280;49182;50.788;7.318;2023-02-10T05:29:30;102958.59;;;0.31;90.04
43125;BME280;49182;50.788;7.318;2023-02-10T05:31:56;102952.56;;;0.29;90.12
43125;BME280;49182;50.788;7.318;2023-02-10T05:34:24;102950.84;;;0.28;90.08
43125;BME280;49182;50.788;7.318;2023-02-10T05:36:52;102962.09;;;0.30;90.39
43125;BME280;49182;50.788;7.318;2023-02-10T05:39:18;102956.03;;;0.29;89.92
43125;BME280;49182;50.788;7.318;2023-02-10T05:41:45;102950.84;;;0.29;90.80
43125;BME280;49182;50.788;7.318;2023-02-10T05:44:11;102961.19;;;0.31;90.36
43125;BME280;49182;50.788;7.318;2023-02-10T05:46:38;102954.25;;;0.31;90.79
43125;BME280;49182;50.788;7.318;2023-02-10T05:49:04;102950.75;;;0.38;90.12
43125;BME280;49182;50.788;7.318;2023-02-10T05:51:31;102942.13;;;0.36;90.46
43125;BME280;49182;50.788;7.318;2023-02-10T05:53:59;102950.75;;;0.38;90.50
43125;BME280;49182;50.788;7.318;2023-02-10T05:56:26;102957.66;;;0.39;90.70
43125;BME280;49182;50.788;7.318;2023-02-10T05:58:53;102970.66;;;0.41;90.63
43125;BME280;49182;50.788;7.318;2023-02-10T06:01:19;102964.50;;;0.53;90.25
43125;BME280;49182;50.788;7.318;2023-02-10T06:03:46;102961.06;;;0.49;89.79
43125;BME280;49182;50.788;7.318;2023-02-10T06:06:13;102962.75;;;0.53;90.59
43125;BME280;49182;50.788;7.318;2023-02-10T06:08:39;102970.56;;;0.55;90.16
43125;BME280;49182;50.788;7.318;2023-02-10T06:11:07;102969.66;;;0.57;90.16
43125;BME280;49182;50.788;7.318;2023-02-10T06:13:34;102954.06;;;0.57;90.34
43125;BME280;49182;50.788;7.318;2023-02-10T06:16:01;102967.91;;;0.58;90.27
43125;BME280;49182;50.788;7.318;2023-02-10T06:18:28;102967.06;;;0.56;90.43
43125;BME280;49182;50.788;7.318;2023-02-10T06:20:55;102961.91;;;0.54;90.26
43125;BME280;49182;50.788;7.318;2023-02-10T06:23:21;102964.41;;;0.62;90.46
43125;BME280;49182;50.788;7.318;2023-02-10T06:25:48;102968.72;;;0.67;89.59
43125;BME280;49182;50.788;7.318;2023-02-10T06:28:16;102967.84;;;0.67;89.84
43125;BME280;49182;50.788;7.318;2023-02-10T06:30:44;102961.81;;;0.62;89.81
43125;BME280;49182;50.788;7.318;2023-02-10T06:33:10;102956.66;;;0.59;90.31
43125;BME280;49182;50.788;7.318;2023-02-10T06:35:37;102971.38;;;0.57;89.70
43125;BME280;49182;50.788;7.318;2023-02-10T06:38:04;102969.69;;;0.53;90.29
43125;BME280;49182;50.788;7.318;2023-02-10T06:40:30;102969.69;;;0.51;90.33
43125;BME280;49182;50.788;7.318;2023-02-10T06:42:57;102971.47;;;0.49;89.77
43125;BME280;49182;50.788;7.318;2023-02-10T06:45:25;102978.38;;;0.50;90.20
43125;BME280;49182;50.788;7.318;2023-02-10T06:47:51;102985.28;;;0.51;89.64
43125;BME280;49182;50.788;7.318;2023-02-10T06:50:18;102996.50;;;0.58;89.72
43125;BME280;49182;50.788;7.318;2023-02-10T06:52:45;102997.38;;;0.61;89.82
43125;BME280;49182;50.788;7.318;2023-02-10T06:55:12;102997.28;;;0.69;89.29
43125;BME280;49182;50.788;7.318;2023-02-10T06:57:38;103004.19;;;0.71;89.56
43125;BME280;49182;50.788;7.318;2023-02-10T07:00:09;102988.59;;;0.68;89.53
43125;BME280;49182;50.788;7.318;2023-02-10T07:02:37;103001.59;;;0.73;89.81
43125;BME280;49182;50.788;7.318;2023-02-10T07:05:05;103005.06;;;0.72;89.77
43125;BME280;49182;50.788;7.318;2023-02-10T07:07:33;103004.19;;;0.71;89.76
43125;BME280;49182;50.788;7.318;2023-02-10T07:10:00;103018.03;;;0.75;90.13
43125;BME280;49182;50.788;7.318;2023-02-10T07:12:27;103024.13;;;0.74;90.66
43125;BME280;49182;50.788;7.318;2023-02-10T07:14:53;103022.34;;;0.76;90.23
43125;BME280;49182;50.788;7.318;2023-02-10T07:17:20;103011.94;;;0.74;90.23
43125;BME280;49182;50.788;7.318;2023-02-10T07:19:48;103025.75;;;0.84;90.13
43125;BME280;49182;50.788;7.318;2023-02-10T07:22:15;103036.13;;;0.87;90.48
43125;BME280;49182;50.788;7.318;2023-02-10T07:24:41;103042.16;;;0.91;90.27
43125;BME280;49182;50.788;7.318;2023-02-10T07:27:09;103040.38;;;0.97;89.60
43125;BME280;49182;50.788;7.318;2023-02-10T07:29:35;103043.00;;;0.94;90.17
43125;BME280;49182;50.788;7.318;2023-02-10T07:32:02;103019.69;;;0.80;89.77
43125;BME280;49182;50.788;7.318;2023-02-10T07:34:29;103037.78;;;0.99;89.76
43125;BME280;49182;50.788;7.318;2023-02-10T07:36:57;103040.38;;;0.97;89.85
43125;BME280;49182;50.788;7.318;2023-02-10T07:39:24;103041.25;;;0.98;90.32
43125;BME280;49182;50.788;7.318;2023-02-10T07:41:51;103037.84;;;0.91;90.09
43125;BME280;49182;50.788;7.318;2023-02-10T07:44:19;103048.13;;;1.03;90.26
43125;BME280;49182;50.788;7.318;2023-02-10T07:46:46;103039.41;;;1.10;89.58
43125;BME280;49182;50.788;7.318;2023-02-10T07:49:13;103036.75;;;1.12;90.04
43125;BME280;49182;50.788;7.318;2023-02-10T07:51:40;103041.09;;;1.14;90.10
43125;BME280;49182;50.788;7.318;2023-02-10T07:54:08;102997.91;;;0.94;89.61
43125;BME280;49182;50.788;7.318;2023-02-10T07:56:34;103039.25;;;1.24;89.87
43125;BME280;49182;50.788;7.318;2023-02-10T07:59:01;103036.56;;;1.32;89.46
43125;BME280;49182;50.788;7.318;2023-02-10T08:01:28;103043.44;;;1.40;88.68
43125;BME280;49182;50.788;7.318;2023-02-10T08:03:55;103037.31;;;1.44;88.17
43125;BME280;49182;50.788;7.318;2023-02-10T08:06:23;102989.09;;;1.10;88.32
43125;BME280;49182;50.788;7.318;2023-02-10T08:08:50;103042.44;;;1.49;87.73
43125;BME280;49182;50.788;7.318;2023-02-10T08:11:18;103037.19;;;1.55;87.72
43125;BME280;49182;50.788;7.318;2023-02-10T08:13:45;103031.09;;;1.56;87.22
43125;BME280;49182;50.788;7.318;2023-02-10T08:16:12;103027.75;;;1.48;87.51
43125;BME280;49182;50.788;7.318;2023-02-10T08:18:39;103028.50;;;1.54;87.93
43125;BME280;49182;50.788;7.318;2023-02-10T08:21:06;103018.06;;;1.57;87.90
43125;BME280;49182;50.788;7.318;2023-02-10T08:23:33;103026.75;;;1.59;87.92
43125;BME280;49182;50.788;7.318;2023-02-10T08:26:05;103033.63;;;1.62;88.09
43125;BME280;49182;50.788;7.318;2023-02-10T08:28:34;103031.84;;;1.67;87.96
43125;BME280;49182;50.788;7.318;2023-02-10T08:31:02;103034.41;;;1.72;88.19
43125;BME280;49182;50.788;7.318;2023-02-10T08:33:29;103031.75;;;1.73;87.91
43125;BME280;49182;50.788;7.318;2023-02-10T08:36:13;103026.38;;;1.88;87.04
43125;BME280;49182;50.788;7.318;2023-02-10T08:38:40;103029.84;;;1.89;86.52
43125;BME280;49182;50.788;7.318;2023-02-10T08:41:07;103034.19;;;1.88;86.88
43125;BME280;49182;50.788;7.318;2023-02-10T08:43:35;103033.31;;;1.88;87.03
43125;BME280;49182;50.788;7.318;2023-02-10T08:46:01;103042.81;;;1.92;86.97
43125;BME280;49182;50.788;7.318;2023-02-10T08:48:28;103032.34;;;1.96;86.64
43125;BME280;49182;50.788;7.318;2023-02-10T08:50:55;103033.16;;;2.01;86.45
43125;BME280;49182;50.788;7.318;2023-02-10T08:53:22;103035.75;;;2.03;86.38
43125;BME280;49182;50.788;7.318;2023-02-10T08:55:55;102990.06;;;1.78;86.38
43125;BME280;49182;50.788;7.318;2023-02-10T08:58:26;103038.22;;;2.12;86.69
43125;BME280;49182;50.788;7.318;2023-02-10T09:00:54;103040.72;;;2.18;87.09
43125;BME280;49182;50.788;7.318;2023-02-10T09:03:21;103039.78;;;2.24;86.93
43125;BME280;49182;50.788;7.318;2023-02-10T09:05:48;103051.00;;;2.29;87.28
43125;BME280;49182;50.788;7.318;2023-02-10T09:08:16;103053.53;;;2.35;86.93
43125;BME280;49182;50.788;7.318;2023-02-10T09:10:44;103056.03;;;2.41;87.34
43125;BME280;49182;50.788;7.318;2023-02-10T09:13:12;103044.63;;;2.50;87.12
43125;BME280;49182;50.788;7.318;2023-02-10T09:15:41;103050.50;;;2.65;85.65
43125;BME280;49182;50.788;7.318;2023-02-10T09:18:09;103043.47;;;2.67;84.81
43125;BME280;49182;50.788;7.318;2023-02-10T09:20:36;103047.81;;;2.68;85.35
43125;BME280;49182;50.788;7.318;2023-02-10T09:23:03;103028.00;;;2.57;84.37
43125;BME280;49182;50.788;7.318;2023-02-10T09:25:30;103059.88;;;2.77;84.98
43125;BME280;49182;50.788;7.318;2023-02-10T09:27:57;103057.09;;;2.84;84.89
43125;BME280;49182;50.788;7.318;2023-02-10T09:30:24;103052.69;;;2.90;84.68
43125;BME280;49182;50.788;7.318;2023-02-10T09:32:50;103064.69;;;3.00;85.04
43125;BME280;49182;50.788;7.318;2023-02-10T09:35:19;103059.25;;;3.13;84.36
43125;BME280;49182;50.788;7.318;2023-02-10T09:37:46;103045.31;;;3.14;84.89
43125;BME280;49182;50.788;7.318;2023-02-10T09:40:17;103054.56;;;3.32;84.20
43125;BME280;49182;50.788;7.318;2023-02-10T09:43:08;103056.94;;;3.44;84.03
43125;BME280;49182;50.788;7.318;2023-02-10T09:45:44;103056.75;;;3.53;83.73
43125;BME280;49182;50.788;7.318;2023-02-10T09:48:25;103055.63;;;3.66;83.33
43125;BME280;49182;50.788;7.318;2023-02-10T09:51:08;103047.94;;;3.59;83.03
43125;BME280;49182;50.788;7.318;2023-02-10T09:53:39;103064.00;;;3.84;83.97
43125;BME280;49182;50.788;7.318;2023-02-10T09:56:11;103063.59;;;4.03;83.60
43125;BME280;49182;50.788;7.318;2023-02-10T09:58:43;103064.16;;;4.18;83.38
43125;BME280;49182;50.788;7.318;2023-02-10T10:01:17;103068.16;;;4.34;81.40
43125;BME280;49182;50.788;7.318;2023-02-10T10:03:48;103075.75;;;4.44;80.94
43125;BME280;49182;50.788;7.318;2023-02-10T10:06:22;103067.75;;;4.51;80.92
43125;BME280;49182;50.788;7.318;2023-02-10T10:08:58;103050.25;;;4.54;79.52
43125;BME280;49182;50.788;7.318;2023-02-10T10:11:30;103060.31;;;4.71;79.10
43125;BME280;49182;50.788;7.318;2023-02-10T10:13:59;103063.75;;;4.74;79.67
43125;BME280;49182;50.788;7.318;2023-02-10T10:19:48;103066.88;;;4.88;77.91
43125;BME280;49182;50.788;7.318;2023-02-10T10:22:34;103066.50;;;5.04;77.29
43125;BME280;49182;50.788;7.318;2023-02-10T10:25:29;103057.47;;;5.15;77.01
43125;BME280;49182;50.788;7.318;2023-02-10T10:28:07;103070.22;;;5.29;76.37
43125;BME280;49182;50.788;7.318;2023-02-10T10:30:44;103036.50;;;5.17;74.57
43125;BME280;49182;50.788;7.318;2023-02-10T10:33:20;103074.09;;;5.47;74.64
43125;BME280;49182;50.788;7.318;2023-02-10T10:35:48;103072.94;;;5.57;75.01
43125;BME280;49182;50.788;7.318;2023-02-10T10:38:20;103076.97;;;5.68;74.11
43125;BME280;49182;50.788;7.318;2023-02-10T10:40:48;103082.81;;;5.80;73.94
43125;BME280;49182;50.788;7.318;2023-02-10T10:43:21;103086.13;;;5.86;73.12
43125;BME280;49182;50.788;7.318;2023-02-10T10:45:52;103063.47;;;5.84;73.25
43125;BME280;49182;50.788;7.318;2023-02-10T10:48:24;103084.47;;;6.13;71.90
43125;BME280;49182;50.788;7.318;2023-02-10T10:50:51;103092.13;;;6.21;71.76
43125;BME280;49182;50.788;7.318;2023-02-10T10:53:35;103089.19;;;6.31;70.54
43125;BME280;49182;50.788;7.318;2023-02-10T10:56:05;103075.13;;;6.34;70.70
43125;BME280;49182;50.788;7.318;2023-02-10T10:58:35;103076.28;;;6.53;69.84
43125;BME280;49182;50.788;7.318;2023-02-10T11:01:04;103072.41;;;6.65;70.19
43125;BME280;49182;50.788;7.318;2023-02-10T11:03:31;103069.41;;;6.77;68.09
43125;BME280;49182;50.788;7.318;2023-02-10T11:06:01;103060.53;;;6.79;68.08
43125;BME280;49182;50.788;7.318;2023-02-10T11:08:33;103050.69;;;6.86;67.98
43125;BME280;49182;50.788;7.318;2023-02-10T11:11:02;103050.44;;;6.94;67.99
43125;BME280;49182;50.788;7.318;2023-02-10T11:13:31;103049.22;;;7.04;67.54
43125;BME280;49182;50.788;7.318;2023-02-10T11:16:00;103038.41;;;7.13;67.05
43125;BME280;49182;50.788;7.318;2023-02-10T11:18:28;103034.34;;;7.29;66.21
43125;BME280;49182;50.788;7.318;2023-02-10T11:20:57;103033.13;;;7.39;65.75
43125;BME280;49182;50.788;7.318;2023-02-10T11:23:24;103025.25;;;7.39;64.70
43125;BME280;49182;50.788;7.318;2023-02-10T11:25:59;103026.16;;;7.38;64.78
43125;BME280;49182;50.788;7.318;2023-02-10T11:28:28;103008.00;;;7.30;64.57
43125;BME280;49182;50.788;7.318;2023-02-10T11:30:58;103013.09;;;7.35;64.92
43125;BME280;49182;50.788;7.318;2023-02-10T11:33:28;103010.78;;;7.51;65.28
43125;BME280;49182;50.788;7.318;2023-02-10T11:35:59;103002.00;;;7.52;65.17
43125;BME280;49182;50.788;7.318;2023-02-10T11:38:27;102995.06;;;7.72;64.94
43125;BME280;49182;50.788;7.318;2023-02-10T11:40:57;103004.75;;;7.95;64.36
43125;BME280;49182;50.788;7.318;2023-02-10T11:43:28;102997.16;;;8.09;63.50
43125;BME280;49182;50.788;7.318;2023-02-10T11:45:58;102995.34;;;8.11;62.75
43125;BME280;49182;50.788;7.318;2023-02-10T11:48:26;102976.16;;;7.86;62.41
43125;BME280;49182;50.788;7.318;2023-02-10T11:51:02;102994.19;;;8.19;61.97
43125;BME280;49182;50.788;7.318;2023-02-10T11:53:31;102992.59;;;8.15;61.59
43125;BME280;49182;50.788;7.318;2023-02-10T11:56:02;102987.19;;;8.18;61.32
43125;BME280;49182;50.788;7.318;2023-02-10T11:58:40;102982.53;;;8.24;61.65
43125;BME280;49182;50.788;7.318;2023-02-10T12:01:13;102994.00;;;8.23;61.04
43125;BME280;49182;50.788;7.318;2023-02-10T12:03:54;102983.00;;;8.35;60.50
43125;BME280;49182;50.788;7.318;2023-02-10T12:06:30;102982.94;;;8.37;60.61
43125;BME280;49182;50.788;7.318;2023-02-10T12:09:09;102969.59;;;8.41;60.70
43125;BME280;49182;50.788;7.318;2023-02-10T12:11:48;102955.75;;;8.36;60.50
43125;BME280;49182;50.788;7.318;2023-02-10T12:14:28;102978.03;;;8.49;59.17
43125;BME280;49182;50.788;7.318;2023-02-10T12:17:05;102980.69;;;8.49;59.97
43125;BME280;49182;50.788;7.318;2023-02-10T12:19:46;102973.47;;;8.33;59.76
43125;BME280;49182;50.788;7.318;2023-02-10T12:22:19;102977.03;;;8.32;60.72
43125;BME280;49182;50.788;7.318;2023-02-10T12:25:09;102978.88;;;8.28;60.29
43125;BME280;49182;50.788;7.318;2023-02-10T12:27:59;102981.91;;;8.41;59.31
43125;BME280;49182;50.788;7.318;2023-02-10T12:30:34;102982.09;;;8.36;60.64
43125;BME280;49182;50.788;7.318;2023-02-10T12:33:21;102971.72;;;8.53;59.95
43125;BME280;49182;50.788;7.318;2023-02-10T12:35:55;102947.56;;;8.44;59.75
43125;BME280;49182;50.788;7.318;2023-02-10T12:38:39;102979.88;;;8.69;59.33
43125;BME280;49182;50.788;7.318;2023-02-10T12:41:17;102962.25;;;8.49;59.10
43125;BME280;49182;50.788;7.318;2023-02-10T12:43:58;102946.78;;;8.62;58.70
43125;BME280;49182;50.788;7.318;2023-02-10T12:46:32;102964.66;;;8.96;58.13
43125;BME280;49182;50.788;7.318;2023-02-10T12:49:19;102964.03;;;8.89;57.72
43125;BME280;49182;50.788;7.318;2023-02-10T12:52:03;102960.00;;;8.82;56.45
43125;BME280;49182;50.788;7.318;2023-02-10T12:54:35;102958.47;;;8.97;56.93
43125;BME280;49182;50.788;7.318;2023-02-10T12:57:13;102950.28;;;9.03;57.11
43125;BME280;49182;50.788;7.318;2023-02-10T12:59:45;102946.41;;;9.12;56.50
43125;BME280;49182;50.788;7.318;2023-02-10T13:02:16;102948.28;;;9.28;56.23
43125;BME280;49182;50.788;7.318;2023-02-10T13:04:48;102925.34;;;9.30;54.56
43125;BME280;49182;50.788;7.318;2023-02-10T13:07:25;102936.94;;;9.26;55.32
43125;BME280;49182;50.788;7.318;2023-02-10T13:09:57;102938.25;;;8.98;54.35
43125;BME280;49182;50.788;7.318;2023-02-10T13:12:26;102938.38;;;8.95;55.93
43125;BME280;49182;50.788;7.318;2023-02-10T13:15:01;102927.75;;;8.96;55.63
43125;BME280;49182;50.788;7.318;2023-02-10T13:17:36;102928.69;;;8.95;55.50
43125;BME280;49182;50.788;7.318;2023-02-10T13:20:13;102932.00;;;9.00;55.41